CAL062 EDDF-RCTP
Flight info
| Callsign | CAL062 |
|---|---|
| Flight time | N/A |
| Altitude | 35000 |
| Route | SULUS4D/07C SULUS Z650 VEMUT DCT BUDEX/N0485F370 DCT MAREG DCT ALAMU DCT BUDOP DCT IRLOX DCT OPT DCT LUGEB DCT UDROS DCT CRM UM11 TBN UN61 NOLGA N61 LAGAS M747 SUBUT T923 ERLEV M11 AMOKU/N0487F390 M11 RODAR A909 LEMOD N644 DI A466 SULOM M890 LKN/N0487F410 A201 LSO A599 LINSO/K0893S1250 A599 POU B330 TAMOT/N0481F410 B330 BIGEX DCT DALOL V631 ENVAR M750 TONGA TONGA1A |
| Aircraft | A359/H-SDE2E3GHIJ3J4J5LM1ORWXY/LB1D1 |
Departure
| Time | 2026-05-01 15:00 |
|---|---|
| Airport | Frankfurt Main Airport (EDDF) |
Arrival
| Time | N/A |
|---|---|
| Airport | Taiwan Taoyuan International Airport (RCTP) |
| Time | Latitude | Longitude | Altitude | Speed | Heading |
|---|---|---|---|---|---|
| 2026-05-01 14:21 | 50.03178 | 8.57414 | 366 ft | 0 kts | 205° |
| 2026-05-01 14:43 | 50.03179 | 8.57415 | 362 ft | 2 kts | 205° |
| 2026-05-01 14:44 | 50.03201 | 8.57431 | 365 ft | 4 kts | 205° |
| 2026-05-01 14:44 | 50.03248 | 8.57469 | 368 ft | 4 kts | 230° |
| 2026-05-01 14:44 | 50.03258 | 8.57502 | 367 ft | 4 kts | 281° |
| 2026-05-01 14:45 | 50.03251 | 8.57532 | 365 ft | 4 kts | 295° |
| 2026-05-01 14:45 | 50.03233 | 8.57593 | 365 ft | 0 kts | 295° |
| 2026-05-01 14:48 | 50.03234 | 8.57588 | 364 ft | 1 kts | 295° |
| 2026-05-01 14:49 | 50.03257 | 8.57512 | 366 ft | 5 kts | 295° |
| 2026-05-01 14:49 | 50.03292 | 8.57394 | 366 ft | 7 kts | 294° |
| 2026-05-01 14:50 | 50.03324 | 8.57281 | 369 ft | 7 kts | 294° |
| 2026-05-01 14:50 | 50.03350 | 8.57095 | 364 ft | 10 kts | 251° |
| 2026-05-01 14:51 | 50.03324 | 8.56992 | 364 ft | 11 kts | 249° |
| 2026-05-01 14:51 | 50.03265 | 8.56744 | 357 ft | 14 kts | 250° |
| 2026-05-01 14:52 | 50.03198 | 8.56461 | 361 ft | 12 kts | 250° |
| 2026-05-01 14:52 | 50.03168 | 8.56334 | 360 ft | 13 kts | 250° |
| 2026-05-01 14:52 | 50.03097 | 8.56039 | 360 ft | 16 kts | 250° |
| 2026-05-01 14:53 | 50.03057 | 8.55870 | 358 ft | 17 kts | 250° |
| 2026-05-01 14:53 | 50.03015 | 8.55697 | 360 ft | 17 kts | 250° |
| 2026-05-01 14:53 | 50.02973 | 8.55521 | 355 ft | 18 kts | 250° |
| 2026-05-01 14:53 | 50.02930 | 8.55341 | 358 ft | 18 kts | 249° |
| 2026-05-01 14:54 | 50.02893 | 8.55189 | 359 ft | 11 kts | 249° |
| 2026-05-01 14:54 | 50.02866 | 8.55076 | 359 ft | 12 kts | 249° |
| 2026-05-01 14:54 | 50.02836 | 8.54952 | 355 ft | 11 kts | 250° |
| 2026-05-01 14:54 | 50.02830 | 8.54855 | 356 ft | 8 kts | 300° |
| 2026-05-01 14:55 | 50.02886 | 8.54811 | 356 ft | 10 kts | 334° |
| 2026-05-01 14:55 | 50.02936 | 8.54726 | 354 ft | 11 kts | 302° |
| 2026-05-01 14:55 | 50.03005 | 8.54657 | 348 ft | 13 kts | 340° |
| 2026-05-01 14:55 | 50.03093 | 8.54607 | 350 ft | 13 kts | 340° |
| 2026-05-01 14:56 | 50.03174 | 8.54560 | 355 ft | 12 kts | 340° |
| 2026-05-01 14:56 | 50.03258 | 8.54512 | 355 ft | 13 kts | 340° |
| 2026-05-01 14:56 | 50.03330 | 8.54470 | 353 ft | 8 kts | 339° |
| 2026-05-01 14:56 | 50.03359 | 8.54454 | 353 ft | 1 kts | 340° |
| 2026-05-01 14:58 | 50.03373 | 8.54446 | 355 ft | 5 kts | 340° |
| 2026-05-01 14:58 | 50.03417 | 8.54420 | 354 ft | 6 kts | 340° |
| 2026-05-01 14:58 | 50.03448 | 8.54402 | 355 ft | 6 kts | 340° |
| 2026-05-01 14:58 | 50.03487 | 8.54408 | 357 ft | 4 kts | 55° |
| 2026-05-01 14:59 | 50.03501 | 8.54463 | 357 ft | 12 kts | 69° |
| 2026-05-01 14:59 | 50.03596 | 8.54861 | 360 ft | 66 kts | 70° |
| 2026-05-01 14:59 | 50.03816 | 8.55780 | 364 ft | 113 kts | 69° |
| 2026-05-01 14:59 | 50.04134 | 8.57133 | 384 ft | 150 kts | 71° |
| 2026-05-01 15:00 | 50.04865 | 8.60022 | 1247 ft | 152 kts | 74° |
| 2026-05-01 15:00 | 50.05205 | 8.61625 | 1583 ft | 163 kts | 75° |
| 2026-05-01 15:00 | 50.05582 | 8.63400 | 1733 ft | 182 kts | 76° |
| 2026-05-01 15:01 | 50.06002 | 8.65327 | 1992 ft | 200 kts | 73° |
| 2026-05-01 15:01 | 50.06480 | 8.67474 | 2209 ft | 218 kts | 74° |
| 2026-05-01 15:01 | 50.06971 | 8.69736 | 2646 ft | 223 kts | 75° |
| 2026-05-01 15:01 | 50.07152 | 8.72118 | 3150 ft | 224 kts | 96° |
| 2026-05-01 15:02 | 50.06930 | 8.74593 | 3418 ft | 239 kts | 101° |
| 2026-05-01 15:02 | 50.06724 | 8.76299 | 3664 ft | 245 kts | 102° |
| 2026-05-01 15:02 | 50.06300 | 8.79838 | 4274 ft | 252 kts | 102° |
| 2026-05-01 15:02 | 50.05980 | 8.82551 | 4801 ft | 258 kts | 103° |
| 2026-05-01 15:03 | 50.05791 | 8.85217 | 5322 ft | 264 kts | 94° |
| 2026-05-01 15:03 | 50.05806 | 8.88073 | 5928 ft | 266 kts | 91° |
| 2026-05-01 15:03 | 50.05861 | 8.90977 | 6492 ft | 270 kts | 91° |
| 2026-05-01 15:03 | 50.05917 | 8.93903 | 7085 ft | 272 kts | 91° |
| 2026-05-01 15:04 | 50.05970 | 8.96853 | 7704 ft | 273 kts | 91° |
| 2026-05-01 15:04 | 50.06020 | 8.99815 | 8326 ft | 275 kts | 91° |
| 2026-05-01 15:04 | 50.06069 | 9.02803 | 8912 ft | 278 kts | 91° |
| 2026-05-01 15:04 | 50.06117 | 9.05820 | 9520 ft | 280 kts | 91° |
| 2026-05-01 15:05 | 50.06166 | 9.08859 | 10153 ft | 282 kts | 91° |
| 2026-05-01 15:05 | 50.06213 | 9.11909 | 10585 ft | 290 kts | 91° |
| 2026-05-01 15:05 | 50.06261 | 9.15123 | 10875 ft | 305 kts | 91° |
| 2026-05-01 15:05 | 50.06309 | 9.18499 | 11141 ft | 319 kts | 91° |
| 2026-05-01 15:06 | 50.06363 | 9.22029 | 11412 ft | 333 kts | 90° |
| 2026-05-01 15:06 | 50.06413 | 9.25697 | 11667 ft | 346 kts | 91° |
| 2026-05-01 15:06 | 50.06462 | 9.29501 | 11922 ft | 358 kts | 90° |
| 2026-05-01 15:06 | 50.06514 | 9.33427 | 12302 ft | 365 kts | 90° |
| 2026-05-01 15:07 | 50.06565 | 9.37404 | 12774 ft | 369 kts | 90° |
| 2026-05-01 15:07 | 50.06617 | 9.41413 | 13316 ft | 372 kts | 90° |
| 2026-05-01 15:07 | 50.06666 | 9.45400 | 13820 ft | 375 kts | 90° |
| 2026-05-01 15:07 | 50.06714 | 9.49465 | 14320 ft | 378 kts | 90° |
| 2026-05-01 15:08 | 50.06761 | 9.53568 | 14794 ft | 380 kts | 90° |
| 2026-05-01 15:08 | 50.06807 | 9.57703 | 15232 ft | 384 kts | 90° |
| 2026-05-01 15:08 | 50.06851 | 9.61870 | 15702 ft | 386 kts | 90° |
| 2026-05-01 15:08 | 50.06895 | 9.66063 | 16258 ft | 387 kts | 90° |
| 2026-05-01 15:09 | 50.06938 | 9.70269 | 16723 ft | 391 kts | 90° |
| 2026-05-01 15:09 | 50.06983 | 9.74507 | 17212 ft | 393 kts | 90° |
| 2026-05-01 15:09 | 50.07021 | 9.78769 | 17735 ft | 395 kts | 90° |
| 2026-05-01 15:09 | 50.07057 | 9.83003 | 18149 ft | 399 kts | 90° |
| 2026-05-01 15:10 | 50.07091 | 9.87204 | 18641 ft | 401 kts | 90° |
| 2026-05-01 15:10 | 50.07160 | 9.95962 | 19462 ft | 407 kts | 90° |
| 2026-05-01 15:10 | 50.07192 | 10.00377 | 19967 ft | 408 kts | 90° |
| 2026-05-01 15:11 | 50.07222 | 10.04598 | 20398 ft | 411 kts | 90° |
| 2026-05-01 15:11 | 50.07280 | 10.13548 | 21318 ft | 416 kts | 89° |
| 2026-05-01 15:11 | 50.07306 | 10.18071 | 21724 ft | 419 kts | 89° |
| 2026-05-01 15:12 | 50.07330 | 10.22563 | 22165 ft | 421 kts | 89° |
| 2026-05-01 15:12 | 50.07380 | 10.31741 | 23008 ft | 427 kts | 89° |
| 2026-05-01 15:12 | 50.07403 | 10.36376 | 23475 ft | 429 kts | 89° |
| 2026-05-01 15:13 | 50.07463 | 10.50401 | 24623 ft | 437 kts | 89° |
| 2026-05-01 15:14 | 50.07494 | 10.59909 | 25304 ft | 443 kts | 89° |
| 2026-05-01 15:14 | 50.07506 | 10.64653 | 25644 ft | 445 kts | 89° |
| 2026-05-01 15:14 | 50.07107 | 10.74318 | 26336 ft | 451 kts | 101° |
| 2026-05-01 15:15 | 50.05368 | 10.83775 | 26992 ft | 458 kts | 107° |
| 2026-05-01 15:15 | 50.03321 | 10.93199 | 27657 ft | 463 kts | 108° |
| 2026-05-01 15:16 | 50.01257 | 11.02629 | 28309 ft | 467 kts | 107° |
| 2026-05-01 15:16 | 49.99197 | 11.12194 | 28907 ft | 472 kts | 107° |
| 2026-05-01 15:17 | 49.97116 | 11.21911 | 29495 ft | 476 kts | 107° |
| 2026-05-01 15:18 | 49.93982 | 11.36665 | 30306 ft | 483 kts | 107° |
| 2026-05-01 15:18 | 49.92930 | 11.41623 | 30530 ft | 485 kts | 107° |
| 2026-05-01 15:19 | 49.90107 | 11.56677 | 31390 ft | 484 kts | 103° |
| 2026-05-01 15:19 | 49.88390 | 11.66687 | 31904 ft | 483 kts | 99° |
| 2026-05-01 15:19 | 49.87826 | 11.71810 | 32177 ft | 482 kts | 97° |
| 2026-05-01 15:20 | 49.86869 | 11.82080 | 32678 ft | 481 kts | 96° |
| 2026-05-01 15:20 | 49.86417 | 11.87217 | 32941 ft | 481 kts | 96° |
| 2026-05-01 15:20 | 49.85969 | 11.92329 | 33286 ft | 478 kts | 96° |
| 2026-05-01 15:21 | 49.85519 | 11.97437 | 33553 ft | 477 kts | 96° |
| 2026-05-01 15:21 | 49.85066 | 12.02531 | 33753 ft | 478 kts | 96° |
| 2026-05-01 15:21 | 49.84616 | 12.07563 | 33937 ft | 478 kts | 96° |
| 2026-05-01 15:21 | 49.84156 | 12.12652 | 34153 ft | 478 kts | 96° |
| 2026-05-01 15:22 | 49.83227 | 12.22840 | 34495 ft | 477 kts | 96° |
| 2026-05-01 15:22 | 49.82760 | 12.27926 | 34647 ft | 477 kts | 96° |
| 2026-05-01 15:22 | 49.82294 | 12.33008 | 34818 ft | 476 kts | 96° |
| 2026-05-01 15:23 | 49.81819 | 12.38077 | 35039 ft | 475 kts | 97° |
| 2026-05-01 15:23 | 49.81092 | 12.43075 | 35159 ft | 478 kts | 105° |
| 2026-05-01 15:23 | 49.79913 | 12.47890 | 35272 ft | 480 kts | 114° |
| 2026-05-01 15:23 | 49.78278 | 12.52402 | 35366 ft | 483 kts | 120° |
| 2026-05-01 15:24 | 49.74549 | 12.61048 | 35369 ft | 490 kts | 123° |
| 2026-05-01 15:24 | 49.70631 | 12.69669 | 35371 ft | 490 kts | 123° |
| 2026-05-01 15:25 | 49.66720 | 12.78274 | 35370 ft | 489 kts | 122° |
| 2026-05-01 15:25 | 49.62828 | 12.86889 | 35367 ft | 489 kts | 122° |
| 2026-05-01 15:26 | 49.58971 | 12.95433 | 35370 ft | 489 kts | 122° |
| 2026-05-01 15:26 | 49.55080 | 13.04030 | 35369 ft | 489 kts | 122° |
| 2026-05-01 15:27 | 49.51181 | 13.12610 | 35372 ft | 489 kts | 122° |
| 2026-05-01 15:28 | 49.45316 | 13.25461 | 35371 ft | 489 kts | 122° |
| 2026-05-01 15:28 | 49.41428 | 13.33944 | 35370 ft | 489 kts | 122° |
| 2026-05-01 15:29 | 49.35541 | 13.46742 | 35381 ft | 489 kts | 122° |
| 2026-05-01 15:30 | 49.27670 | 13.63756 | 35378 ft | 490 kts | 122° |
| 2026-05-01 15:31 | 49.15838 | 13.89132 | 35371 ft | 489 kts | 122° |
| 2026-05-01 15:32 | 49.07929 | 14.05963 | 35363 ft | 489 kts | 122° |
| 2026-05-01 15:34 | 48.96024 | 14.31190 | 35360 ft | 487 kts | 118° |